sensor_id;sensor_type;location;lat;lon;timestamp;temperature;humidity
78475;SHT31;67766;51.964;5.660;2023-03-12T00:02:06;7.5;44.3
78475;SHT31;67766;51.964;5.660;2023-03-12T00:04:36;7.5;44.3
78475;SHT31;67766;51.964;5.660;2023-03-12T00:07:06;7.4;44.3
78475;SHT31;67766;51.964;5.660;2023-03-12T00:09:37;7.4;44.5
78475;SHT31;67766;51.964;5.660;2023-03-12T00:12:08;7.4;44.8
78475;SHT31;67766;51.964;5.660;2023-03-12T00:14:39;7.3;45.0
78475;SHT31;67766;51.964;5.660;2023-03-12T00:17:09;7.3;45.1
78475;SHT31;67766;51.964;5.660;2023-03-12T00:19:39;7.3;45.0
78475;SHT31;67766;51.964;5.660;2023-03-12T00:22:08;7.3;45.2
78475;SHT31;67766;51.964;5.660;2023-03-12T00:24:38;7.3;45.5
78475;SHT31;67766;51.964;5.660;2023-03-12T00:27:09;7.2;45.4
78475;SHT31;67766;51.964;5.660;2023-03-12T00:29:39;7.2;45.5
78475;SHT31;67766;51.964;5.660;2023-03-12T00:32:09;7.2;45.6
78475;SHT31;67766;51.964;5.660;2023-03-12T00:34:39;7.2;45.7
78475;SHT31;67766;51.964;5.660;2023-03-12T00:37:08;7.2;45.9
78475;SHT31;67766;51.964;5.660;2023-03-12T00:39:38;7.2;46.1
78475;SHT31;67766;51.964;5.660;2023-03-12T00:42:07;7.2;46.2
78475;SHT31;67766;51.964;5.660;2023-03-12T00:44:37;7.2;46.5
78475;SHT31;67766;51.964;5.660;2023-03-12T00:47:07;7.2;46.5
78475;SHT31;67766;51.964;5.660;2023-03-12T00:49:37;7.1;46.4
78475;SHT31;67766;51.964;5.660;2023-03-12T00:52:07;7.1;46.4
78475;SHT31;67766;51.964;5.660;2023-03-12T00:54:37;7.1;46.7
78475;SHT31;67766;51.964;5.660;2023-03-12T00:57:08;7.1;46.9
78475;SHT31;67766;51.964;5.660;2023-03-12T00:59:38;7.1;47.2
78475;SHT31;67766;51.964;5.660;2023-03-12T01:02:09;7.1;47.1
78475;SHT31;67766;51.964;5.660;2023-03-12T01:04:39;7.1;47.3
78475;SHT31;67766;51.964;5.660;2023-03-12T01:07:08;7.2;47.1
78475;SHT31;67766;51.964;5.660;2023-03-12T01:09:38;7.2;47.1
78475;SHT31;67766;51.964;5.660;2023-03-12T01:12:08;7.2;46.9
78475;SHT31;67766;51.964;5.660;2023-03-12T01:14:37;7.3;46.5
78475;SHT31;67766;51.964;5.660;2023-03-12T01:17:07;7.3;46.4
78475;SHT31;67766;51.964;5.660;2023-03-12T01:19:36;7.3;46.3
78475;SHT31;67766;51.964;5.660;2023-03-12T01:22:06;7.3;46.4
78475;SHT31;67766;51.964;5.660;2023-03-12T01:24:36;7.3;46.3
78475;SHT31;67766;51.964;5.660;2023-03-12T01:27:05;7.3;46.3
78475;SHT31;67766;51.964;5.660;2023-03-12T01:29:35;7.3;46.4
78475;SHT31;67766;51.964;5.660;2023-03-12T01:32:05;7.3;46.5
78475;SHT31;67766;51.964;5.660;2023-03-12T01:34:35;7.3;46.6
78475;SHT31;67766;51.964;5.660;2023-03-12T01:37:05;7.3;46.8
78475;SHT31;67766;51.964;5.660;2023-03-12T01:39:35;7.3;46.8
78475;SHT31;67766;51.964;5.660;2023-03-12T01:42:05;7.3;46.8
78475;SHT31;67766;51.964;5.660;2023-03-12T01:44:49;7.3;47.1
78475;SHT31;67766;51.964;5.660;2023-03-12T01:47:20;7.3;46.9
78475;SHT31;67766;51.964;5.660;2023-03-12T01:49:51;7.2;47.1
78475;SHT31;67766;51.964;5.660;2023-03-12T01:52:24;7.2;47.0
78475;SHT31;67766;51.964;5.660;2023-03-12T01:55:00;7.2;47.2
78475;SHT31;67766;51.964;5.660;2023-03-12T01:57:35;7.2;47.2
78475;SHT31;67766;51.964;5.660;2023-03-12T02:00:13;7.2;47.0
78475;SHT31;67766;51.964;5.660;2023-03-12T02:02:46;7.2;47.1
78475;SHT31;67766;51.964;5.660;2023-03-12T02:05:24;7.2;46.9
78475;SHT31;67766;51.964;5.660;2023-03-12T02:07:57;7.2;47.0
78475;SHT31;67766;51.964;5.660;2023-03-12T02:10:27;7.2;46.8
78475;SHT31;67766;51.964;5.660;2023-03-12T02:12:59;7.2;46.7
78475;SHT31;67766;51.964;5.660;2023-03-12T02:15:29;7.2;46.7
78475;SHT31;67766;51.964;5.660;2023-03-12T02:18:01;7.2;46.5
78475;SHT31;67766;51.964;5.660;2023-03-12T02:20:38;7.2;46.7
78475;SHT31;67766;51.964;5.660;2023-03-12T02:23:14;7.2;46.6
78475;SHT31;67766;51.964;5.660;2023-03-12T02:25:49;7.2;46.5
78475;SHT31;67766;51.964;5.660;2023-03-12T02:28:20;7.2;46.6
78475;SHT31;67766;51.964;5.660;2023-03-12T02:30:56;7.2;46.6
78475;SHT31;67766;51.964;5.660;2023-03-12T02:33:26;7.2;46.8
78475;SHT31;67766;51.964;5.660;2023-03-12T02:35:56;7.2;47.1
78475;SHT31;67766;51.964;5.660;2023-03-12T02:38:37;7.1;47.0
78475;SHT31;67766;51.964;5.660;2023-03-12T02:41:12;7.1;47.1
78475;SHT31;67766;51.964;5.660;2023-03-12T02:43:44;7.1;47.1
78475;SHT31;67766;51.964;5.660;2023-03-12T02:46:14;7.1;47.5
78475;SHT31;67766;51.964;5.660;2023-03-12T02:48:45;7.1;47.4
78475;SHT31;67766;51.964;5.660;2023-03-12T02:51:14;7.1;47.4
78475;SHT31;67766;51.964;5.660;2023-03-12T02:53:44;7.1;47.5
78475;SHT31;67766;51.964;5.660;2023-03-12T02:56:15;7.1;47.8
78475;SHT31;67766;51.964;5.660;2023-03-12T02:58:45;7.1;47.4
78475;SHT31;67766;51.964;5.660;2023-03-12T03:01:14;7.1;47.4
78475;SHT31;67766;51.964;5.660;2023-03-12T03:03:44;7.1;47.6
78475;SHT31;67766;51.964;5.660;2023-03-12T03:06:17;7.1;47.5
78475;SHT31;67766;51.964;5.660;2023-03-12T03:08:46;7.1;47.4
78475;SHT31;67766;51.964;5.660;2023-03-12T03:11:16;7.1;47.3
78475;SHT31;67766;51.964;5.660;2023-03-12T03:13:51;7.2;47.1
78475;SHT31;67766;51.964;5.660;2023-03-12T03:16:22;7.2;47.5
78475;SHT31;67766;51.964;5.660;2023-03-12T03:18:52;7.2;47.7
78475;SHT31;67766;51.964;5.660;2023-03-12T03:21:21;7.2;47.4
78475;SHT31;67766;51.964;5.660;2023-03-12T03:23:51;7.2;47.7
78475;SHT31;67766;51.964;5.660;2023-03-12T03:26:23;7.1;47.8
78475;SHT31;67766;51.964;5.660;2023-03-12T03:28:55;7.1;48.2
78475;SHT31;67766;51.964;5.660;2023-03-12T03:31:24;7.1;47.7
78475;SHT31;67766;51.964;5.660;2023-03-12T03:33:54;7.1;47.7
78475;SHT31;67766;51.964;5.660;2023-03-12T03:36:23;7.0;48.1
78475;SHT31;67766;51.964;5.660;2023-03-12T03:38:53;7.0;48.2
78475;SHT31;67766;51.964;5.660;2023-03-12T03:41:24;7.0;48.5
78475;SHT31;67766;51.964;5.660;2023-03-12T03:43:57;7.0;48.5
78475;SHT31;67766;51.964;5.660;2023-03-12T03:46:27;7.0;48.6
78475;SHT31;67766;51.964;5.660;2023-03-12T03:48:56;7.0;48.7
78475;SHT31;67766;51.964;5.660;2023-03-12T03:51:26;6.9;48.8
78475;SHT31;67766;51.964;5.660;2023-03-12T03:53:57;6.9;48.9
78475;SHT31;67766;51.964;5.660;2023-03-12T03:56:27;6.9;49.3
78475;SHT31;67766;51.964;5.660;2023-03-12T03:58:57;6.9;49.1
78475;SHT31;67766;51.964;5.660;2023-03-12T04:01:28;6.9;49.2
78475;SHT31;67766;51.964;5.660;2023-03-12T04:03:58;6.8;49.3
78475;SHT31;67766;51.964;5.660;2023-03-12T04:06:28;6.8;49.5
78475;SHT31;67766;51.964;5.660;2023-03-12T04:08:58;6.8;49.8
78475;SHT31;67766;51.964;5.660;2023-03-12T04:11:30;6.7;49.8
78475;SHT31;67766;51.964;5.660;2023-03-12T04:14:00;6.7;50.2
78475;SHT31;67766;51.964;5.660;2023-03-12T04:16:30;6.7;50.2
78475;SHT31;67766;51.964;5.660;2023-03-12T04:19:00;6.7;50.6
78475;SHT31;67766;51.964;5.660;2023-03-12T04:21:29;6.7;51.2
78475;SHT31;67766;51.964;5.660;2023-03-12T04:23:59;6.6;51.5
78475;SHT31;67766;51.964;5.660;2023-03-12T04:26:29;6.6;51.3
78475;SHT31;67766;51.964;5.660;2023-03-12T04:28:59;6.6;51.2
78475;SHT31;67766;51.964;5.660;2023-03-12T04:31:28;6.5;51.4
78475;SHT31;67766;51.964;5.660;2023-03-12T04:34:00;6.5;51.8
78475;SHT31;67766;51.964;5.660;2023-03-12T04:36:29;6.4;52.0
78475;SHT31;67766;51.964;5.660;2023-03-12T04:38:59;6.4;52.4
78475;SHT31;67766;51.964;5.660;2023-03-12T04:41:29;6.4;53.2
78475;SHT31;67766;51.964;5.660;2023-03-12T04:43:59;6.3;53.9
78475;SHT31;67766;51.964;5.660;2023-03-12T04:46:29;6.3;54.3
78475;SHT31;67766;51.964;5.660;2023-03-12T04:48:58;6.2;54.7
78475;SHT31;67766;51.964;5.660;2023-03-12T04:51:30;6.2;55.1
78475;SHT31;67766;51.964;5.660;2023-03-12T04:54:00;6.2;55.2
78475;SHT31;67766;51.964;5.660;2023-03-12T04:56:29;6.2;55.4
78475;SHT31;67766;51.964;5.660;2023-03-12T04:58:59;6.2;55.4
78475;SHT31;67766;51.964;5.660;2023-03-12T05:01:31;6.2;55.1
78475;SHT31;67766;51.964;5.660;2023-03-12T05:04:01;6.2;55.2
78475;SHT31;67766;51.964;5.660;2023-03-12T05:06:33;6.3;55.1
78475;SHT31;67766;51.964;5.660;2023-03-12T05:09:03;6.3;55.2
78475;SHT31;67766;51.964;5.660;2023-03-12T05:11:34;6.3;54.9
78475;SHT31;67766;51.964;5.660;2023-03-12T05:14:04;6.3;54.5
78475;SHT31;67766;51.964;5.660;2023-03-12T05:16:34;6.3;54.4
78475;SHT31;67766;51.964;5.660;2023-03-12T05:19:04;6.3;54.4
78475;SHT31;67766;51.964;5.660;2023-03-12T05:21:33;6.3;54.4
78475;SHT31;67766;51.964;5.660;2023-03-12T05:24:03;6.3;54.5
78475;SHT31;67766;51.964;5.660;2023-03-12T05:26:34;6.4;54.4
78475;SHT31;67766;51.964;5.660;2023-03-12T05:29:05;6.4;54.3
78475;SHT31;67766;51.964;5.660;2023-03-12T05:31:35;6.4;54.4
78475;SHT31;67766;51.964;5.660;2023-03-12T05:34:04;6.4;54.3
78475;SHT31;67766;51.964;5.660;2023-03-12T05:36:36;6.4;54.4
78475;SHT31;67766;51.964;5.660;2023-03-12T05:39:06;6.3;54.4
78475;SHT31;67766;51.964;5.660;2023-03-12T05:41:37;6.3;54.6
78475;SHT31;67766;51.964;5.660;2023-03-12T05:44:10;6.3;54.7
78475;SHT31;67766;51.964;5.660;2023-03-12T05:46:42;6.3;54.8
78475;SHT31;67766;51.964;5.660;2023-03-12T05:49:12;6.3;55.2
78475;SHT31;67766;51.964;5.660;2023-03-12T05:51:42;6.3;55.3
78475;SHT31;67766;51.964;5.660;2023-03-12T05:54:11;6.3;55.2
78475;SHT31;67766;51.964;5.660;2023-03-12T05:56:41;6.3;55.5
78475;SHT31;67766;51.964;5.660;2023-03-12T05:59:11;6.3;55.6
78475;SHT31;67766;51.964;5.660;2023-03-12T06:01:41;6.3;55.4
78475;SHT31;67766;51.964;5.660;2023-03-12T06:04:11;6.3;55.5
78475;SHT31;67766;51.964;5.660;2023-03-12T06:06:40;6.3;56.0
78475;SHT31;67766;51.964;5.660;2023-03-12T06:09:10;6.3;56.2
78475;SHT31;67766;51.964;5.660;2023-03-12T06:11:39;6.3;56.7
78475;SHT31;67766;51.964;5.660;2023-03-12T06:14:09;6.3;56.9
78475;SHT31;67766;51.964;5.660;2023-03-12T06:16:39;6.4;57.1
78475;SHT31;67766;51.964;5.660;2023-03-12T06:19:10;6.4;57.7
78475;SHT31;67766;51.964;5.660;2023-03-12T06:21:42;6.4;57.8
78475;SHT31;67766;51.964;5.660;2023-03-12T06:24:12;6.4;58.2
78475;SHT31;67766;51.964;5.660;2023-03-12T06:26:42;6.4;58.1
78475;SHT31;67766;51.964;5.660;2023-03-12T06:29:11;6.3;58.4
78475;SHT31;67766;51.964;5.660;2023-03-12T06:31:41;6.3;58.8
78475;SHT31;67766;51.964;5.660;2023-03-12T06:34:11;6.3;59.0
78475;SHT31;67766;51.964;5.660;2023-03-12T06:36:40;6.3;59.0
78475;SHT31;67766;51.964;5.660;2023-03-12T06:39:10;6.2;59.1
78475;SHT31;67766;51.964;5.660;2023-03-12T06:41:39;6.2;59.4
78475;SHT31;67766;51.964;5.660;2023-03-12T06:44:09;6.2;60.2
78475;SHT31;67766;51.964;5.660;2023-03-12T06:46:39;6.2;61.1
78475;SHT31;67766;51.964;5.660;2023-03-12T06:49:10;6.2;61.9
78475;SHT31;67766;51.964;5.660;2023-03-12T06:51:42;6.2;62.3
78475;SHT31;67766;51.964;5.660;2023-03-12T06:54:11;6.1;62.8
78475;SHT31;67766;51.964;5.660;2023-03-12T06:56:41;6.1;63.4
78475;SHT31;67766;51.964;5.660;2023-03-12T06:59:12;6.1;63.9
78475;SHT31;67766;51.964;5.660;2023-03-12T07:01:41;6.1;64.6
78475;SHT31;67766;51.964;5.660;2023-03-12T07:04:11;6.0;64.8
78475;SHT31;67766;51.964;5.660;2023-03-12T07:06:41;6.0;65.3
78475;SHT31;67766;51.964;5.660;2023-03-12T07:09:10;6.0;65.6
78475;SHT31;67766;51.964;5.660;2023-03-12T07:11:40;6.0;65.9
78475;SHT31;67766;51.964;5.660;2023-03-12T07:14:10;6.0;66.4
78475;SHT31;67766;51.964;5.660;2023-03-12T07:16:42;6.0;66.8
78475;SHT31;67766;51.964;5.660;2023-03-12T07:19:11;6.0;67.1
78475;SHT31;67766;51.964;5.660;2023-03-12T07:21:41;6.0;67.2
78475;SHT31;67766;51.964;5.660;2023-03-12T07:24:11;6.0;67.4
78475;SHT31;67766;51.964;5.660;2023-03-12T07:26:40;6.0;67.6
78475;SHT31;67766;51.964;5.660;2023-03-12T07:29:12;6.0;68.0
78475;SHT31;67766;51.964;5.660;2023-03-12T07:31:41;6.0;68.3
78475;SHT31;67766;51.964;5.660;2023-03-12T07:34:11;6.0;68.6
78475;SHT31;67766;51.964;5.660;2023-03-12T07:36:41;6.0;68.8
78475;SHT31;67766;51.964;5.660;2023-03-12T07:39:10;6.0;69.2
78475;SHT31;67766;51.964;5.660;2023-03-12T07:41:40;6.0;69.4
78475;SHT31;67766;51.964;5.660;2023-03-12T07:44:11;6.0;69.7
78475;SHT31;67766;51.964;5.660;2023-03-12T07:46:41;6.0;70.0
78475;SHT31;67766;51.964;5.660;2023-03-12T07:49:11;6.0;70.3
78475;SHT31;67766;51.964;5.660;2023-03-12T07:51:40;6.0;70.4
78475;SHT31;67766;51.964;5.660;2023-03-12T07:54:10;6.0;71.0
78475;SHT31;67766;51.964;5.660;2023-03-12T07:56:39;6.0;71.4
78475;SHT31;67766;51.964;5.660;2023-03-12T07:59:09;6.0;71.9
78475;SHT31;67766;51.964;5.660;2023-03-12T08:01:39;6.0;72.2
78475;SHT31;67766;51.964;5.660;2023-03-12T08:04:11;6.0;72.5
78475;SHT31;67766;51.964;5.660;2023-03-12T08:06:40;5.9;73.1
78475;SHT31;67766;51.964;5.660;2023-03-12T08:09:10;5.9;73.3
78475;SHT31;67766;51.964;5.660;2023-03-12T08:11:40;5.9;73.4
78475;SHT31;67766;51.964;5.660;2023-03-12T08:14:10;5.9;73.7
78475;SHT31;67766;51.964;5.660;2023-03-12T08:16:40;5.9;73.9
78475;SHT31;67766;51.964;5.660;2023-03-12T08:19:09;5.8;74.2
78475;SHT31;67766;51.964;5.660;2023-03-12T08:21:39;5.8;74.5
78475;SHT31;67766;51.964;5.660;2023-03-12T08:24:09;5.8;74.8
78475;SHT31;67766;51.964;5.660;2023-03-12T08:26:38;5.8;75.1
78475;SHT31;67766;51.964;5.660;2023-03-12T08:29:08;5.9;75.2
78475;SHT31;67766;51.964;5.660;2023-03-12T08:31:38;5.9;75.3
78475;SHT31;67766;51.964;5.660;2023-03-12T08:34:08;5.9;75.4
78475;SHT31;67766;51.964;5.660;2023-03-12T08:36:37;6.0;75.4
78475;SHT31;67766;51.964;5.660;2023-03-12T08:39:09;6.0;75.5
78475;SHT31;67766;51.964;5.660;2023-03-12T08:41:38;6.1;75.5
78475;SHT31;67766;51.964;5.660;2023-03-12T08:44:08;6.1;75.7
78475;SHT31;67766;51.964;5.660;2023-03-12T08:46:37;6.1;75.9
78475;SHT31;67766;51.964;5.660;2023-03-12T08:49:07;6.1;76.2
78475;SHT31;67766;51.964;5.660;2023-03-12T08:51:37;6.1;76.2
78475;SHT31;67766;51.964;5.660;2023-03-12T08:54:08;6.2;76.4
78475;SHT31;67766;51.964;5.660;2023-03-12T08:56:38;6.2;76.7
78475;SHT31;67766;51.964;5.660;2023-03-12T08:59:11;6.2;77.0
78475;SHT31;67766;51.964;5.660;2023-03-12T09:01:41;6.2;77.0
78475;SHT31;67766;51.964;5.660;2023-03-12T09:04:12;6.2;77.1
78475;SHT31;67766;51.964;5.660;2023-03-12T09:06:42;6.3;77.4
78475;SHT31;67766;51.964;5.660;2023-03-12T09:09:12;6.3;77.8
78475;SHT31;67766;51.964;5.660;2023-03-12T09:11:44;6.3;78.1
78475;SHT31;67766;51.964;5.660;2023-03-12T09:14:13;6.3;78.5
78475;SHT31;67766;51.964;5.660;2023-03-12T09:16:43;6.3;78.5
78475;SHT31;67766;51.964;5.660;2023-03-12T09:19:12;6.4;78.7
78475;SHT31;67766;51.964;5.660;2023-03-12T09:21:42;6.4;78.8
78475;SHT31;67766;51.964;5.660;2023-03-12T09:24:12;6.5;78.6
78475;SHT31;67766;51.964;5.660;2023-03-12T09:26:41;6.5;78.4
78475;SHT31;67766;51.964;5.660;2023-03-12T09:29:11;6.6;78.5
78475;SHT31;67766;51.964;5.660;2023-03-12T09:31:41;6.7;78.3
78475;SHT31;67766;51.964;5.660;2023-03-12T09:34:12;6.7;78.3
78475;SHT31;67766;51.964;5.660;2023-03-12T09:36:42;6.8;78.2
78475;SHT31;67766;51.964;5.660;2023-03-12T09:39:12;6.9;78.2
78475;SHT31;67766;51.964;5.660;2023-03-12T09:41:45;6.9;78.4
78475;SHT31;67766;51.964;5.660;2023-03-12T09:44:23;7.0;78.7
78475;SHT31;67766;51.964;5.660;2023-03-12T09:47:00;7.0;78.7
78475;SHT31;67766;51.964;5.660;2023-03-12T09:49:36;7.1;78.4
78475;SHT31;67766;51.964;5.660;2023-03-12T09:52:18;7.2;78.1
78475;SHT31;67766;51.964;5.660;2023-03-12T09:54:57;7.3;78.1
78475;SHT31;67766;51.964;5.660;2023-03-12T09:57:29;7.4;78.3
78475;SHT31;67766;51.964;5.660;2023-03-12T09:59:59;7.5;78.1
78475;SHT31;67766;51.964;5.660;2023-03-12T10:02:54;7.6;78.2
78475;SHT31;67766;51.964;5.660;2023-03-12T10:05:37;7.6;78.3
78475;SHT31;67766;51.964;5.660;2023-03-12T10:08:14;7.7;78.4
78475;SHT31;67766;51.964;5.660;2023-03-12T10:10:51;7.7;78.2
78475;SHT31;67766;51.964;5.660;2023-03-12T10:13:35;7.8;78.6
78475;SHT31;67766;51.964;5.660;2023-03-12T10:16:19;7.9;78.6
78475;SHT31;67766;51.964;5.660;2023-03-12T10:19:08;7.9;78.8
78475;SHT31;67766;51.964;5.660;2023-03-12T10:21:50;8.0;78.7
78475;SHT31;67766;51.964;5.660;2023-03-12T10:24:35;8.1;78.8
78475;SHT31;67766;51.964;5.660;2023-03-12T10:27:12;8.1;78.6
78475;SHT31;67766;51.964;5.660;2023-03-12T10:29:46;8.2;78.9
78475;SHT31;67766;51.964;5.660;2023-03-12T10:32:21;8.3;78.9
78475;SHT31;67766;51.964;5.660;2023-03-12T10:34:55;8.3;78.9
78475;SHT31;67766;51.964;5.660;2023-03-12T10:37:30;8.4;79.0
78475;SHT31;67766;51.964;5.660;2023-03-12T10:40:01;8.5;79.3
78475;SHT31;67766;51.964;5.660;2023-03-12T10:42:32;8.6;79.4
78475;SHT31;67766;51.964;5.660;2023-03-12T10:45:16;8.6;79.5
78475;SHT31;67766;51.964;5.660;2023-03-12T10:47:49;8.7;79.8
78475;SHT31;67766;51.964;5.660;2023-03-12T10:50:26;8.8;79.7
78475;SHT31;67766;51.964;5.660;2023-03-12T10:53:15;8.9;80.0
78475;SHT31;67766;51.964;5.660;2023-03-12T10:55:59;9.0;80.2
78475;SHT31;67766;51.964;5.660;2023-03-12T10:58:34;9.1;80.0
78475;SHT31;67766;51.964;5.660;2023-03-12T11:01:06;9.2;79.8
78475;SHT31;67766;51.964;5.660;2023-03-12T11:03:40;9.3;80.4
78475;SHT31;67766;51.964;5.660;2023-03-12T11:06:21;9.4;80.2
78475;SHT31;67766;51.964;5.660;2023-03-12T11:09:05;9.5;80.0
78475;SHT31;67766;51.964;5.660;2023-03-12T11:11:37;9.6;80.0
78475;SHT31;67766;51.964;5.660;2023-03-12T11:14:16;9.7;79.5
78475;SHT31;67766;51.964;5.660;2023-03-12T11:16:47;9.8;79.3
78475;SHT31;67766;51.964;5.660;2023-03-12T11:19:29;9.9;79.4
78475;SHT31;67766;51.964;5.660;2023-03-12T11:22:01;9.9;79.2
78475;SHT31;67766;51.964;5.660;2023-03-12T11:24:31;10.0;78.8
78475;SHT31;67766;51.964;5.660;2023-03-12T11:27:06;10.1;78.5
78475;SHT31;67766;51.964;5.660;2023-03-12T11:29:43;10.2;78.2
78475;SHT31;67766;51.964;5.660;2023-03-12T11:32:17;10.3;78.1
78475;SHT31;67766;51.964;5.660;2023-03-12T11:34:48;10.3;77.7
78475;SHT31;67766;51.964;5.660;2023-03-12T11:37:28;10.4;77.6
78475;SHT31;67766;51.964;5.660;2023-03-12T11:40:15;10.5;77.8
78475;SHT31;67766;51.964;5.660;2023-03-12T11:43:50;10.5;77.5
78475;SHT31;67766;51.964;5.660;2023-03-12T11:46:30;10.6;77.6
78475;SHT31;67766;51.964;5.660;2023-03-12T11:49:10;10.7;77.6
78475;SHT31;67766;51.964;5.660;2023-03-12T11:51:54;10.7;77.5
78475;SHT31;67766;51.964;5.660;2023-03-12T11:54:48;10.8;77.8
78475;SHT31;67766;51.964;5.660;2023-03-12T11:57:32;10.8;78.1
78475;SHT31;67766;51.964;5.660;2023-03-12T12:00:14;10.9;78.1
78475;SHT31;67766;51.964;5.660;2023-03-12T12:07:28;11.1;76.8
78475;SHT31;67766;51.964;5.660;2023-03-12T12:10:10;11.1;76.6
78475;SHT31;67766;51.964;5.660;2023-03-12T12:12:55;11.2;76.7
78475;SHT31;67766;51.964;5.660;2023-03-12T12:15:37;11.2;76.5
78475;SHT31;67766;51.964;5.660;2023-03-12T12:18:32;11.3;76.7
78475;SHT31;67766;51.964;5.660;2023-03-12T12:21:18;11.3;76.7
78475;SHT31;67766;51.964;5.660;2023-03-12T12:23:58;11.4;76.2
78475;SHT31;67766;51.964;5.660;2023-03-12T12:26:40;11.4;75.7
78475;SHT31;67766;51.964;5.660;2023-03-12T12:29:20;11.5;75.1
78475;SHT31;67766;51.964;5.660;2023-03-12T12:31:54;11.5;74.6
78475;SHT31;67766;51.964;5.660;2023-03-12T12:35:33;11.6;74.4
78475;SHT31;67766;51.964;5.660;2023-03-12T12:38:10;11.6;73.9
78475;SHT31;67766;51.964;5.660;2023-03-12T12:40:48;11.6;73.8
78475;SHT31;67766;51.964;5.660;2023-03-12T12:43:27;11.7;73.8
78475;SHT31;67766;51.964;5.660;2023-03-12T12:46:03;11.7;73.8
78475;SHT31;67766;51.964;5.660;2023-03-12T12:48:37;11.7;73.9
78475;SHT31;67766;51.964;5.660;2023-03-12T12:51:09;11.7;73.4
78475;SHT31;67766;51.964;5.660;2023-03-12T12:53:48;11.7;73.4
78475;SHT31;67766;51.964;5.660;2023-03-12T12:56:24;11.7;73.2
78475;SHT31;67766;51.964;5.660;2023-03-12T12:59:19;11.7;72.8
78475;SHT31;67766;51.964;5.660;2023-03-12T13:01:54;11.8;72.5
78475;SHT31;67766;51.964;5.660;2023-03-12T13:04:29;11.8;72.5
78475;SHT31;67766;51.964;5.660;2023-03-12T13:09:57;11.8;72.3
78475;SHT31;67766;51.964;5.660;2023-03-12T13:12:30;11.8;72.2
78475;SHT31;67766;51.964;5.660;2023-03-12T13:15:33;11.8;72.2
78475;SHT31;67766;51.964;5.660;2023-03-12T13:18:22;11.9;71.7
78475;SHT31;67766;51.964;5.660;2023-03-12T13:21:21;11.9;71.8
78475;SHT31;67766;51.964;5.660;2023-03-12T13:24:08;12.0;71.8
78475;SHT31;67766;51.964;5.660;2023-03-12T13:26:52;12.0;71.5
78475;SHT31;67766;51.964;5.660;2023-03-12T13:29:38;12.1;70.6
78475;SHT31;67766;51.964;5.660;2023-03-12T13:35:30;12.2;69.9
78475;SHT31;67766;51.964;5.660;2023-03-12T13:38:02;12.3;69.0
78475;SHT31;67766;51.964;5.660;2023-03-12T13:41:30;12.3;68.4
78475;SHT31;67766;51.964;5.660;2023-03-12T13:44:30;12.4;67.7
78475;SHT31;67766;51.964;5.660;2023-03-12T13:47:03;12.4;67.1
78475;SHT31;67766;51.964;5.660;2023-03-12T13:49:41;12.5;66.6
78475;SHT31;67766;51.964;5.660;2023-03-12T13:52:21;12.5;66.2
78475;SHT31;67766;51.964;5.660;2023-03-12T13:55:00;12.5;65.4
78475;SHT31;67766;51.964;5.660;2023-03-12T13:57:39;12.6;65.5
78475;SHT31;67766;51.964;5.660;2023-03-12T14:00:18;12.6;66.3
78475;SHT31;67766;51.964;5.660;2023-03-12T14:02:54;12.6;65.5
78475;SHT31;67766;51.964;5.660;2023-03-12T14:05:27;12.7;65.9
78475;SHT31;67766;51.964;5.660;2023-03-12T14:08:10;12.8;65.1
78475;SHT31;67766;51.964;5.660;2023-03-12T14:10:58;12.9;64.6
78475;SHT31;67766;51.964;5.660;2023-03-12T14:13:49;12.9;64.6
78475;SHT31;67766;51.964;5.660;2023-03-12T14:16:26;13.0;63.3
78475;SHT31;67766;51.964;5.660;2023-03-12T14:18:59;13.1;63.3
78475;SHT31;67766;51.964;5.660;2023-03-12T14:21:33;13.1;63.3
78475;SHT31;67766;51.964;5.660;2023-03-12T14:24:06;13.2;62.5
78475;SHT31;67766;51.964;5.660;2023-03-12T14:26:38;13.3;62.0
78475;SHT31;67766;51.964;5.660;2023-03-12T14:29:18;13.4;62.3
78475;SHT31;67766;51.964;5.660;2023-03-12T14:31:49;13.4;62.0
78475;SHT31;67766;51.964;5.660;2023-03-12T14:34:23;13.5;61.9
78475;SHT31;67766;51.964;5.660;2023-03-12T14:36:59;13.5;60.4
78475;SHT31;67766;51.964;5.660;2023-03-12T14:39:38;13.6;60.3
78475;SHT31;67766;51.964;5.660;2023-03-12T14:42:19;13.6;59.8
78475;SHT31;67766;51.964;5.660;2023-03-12T14:44:57;13.7;59.4
78475;SHT31;67766;51.964;5.660;2023-03-12T14:47:28;13.7;59.8
78475;SHT31;67766;51.964;5.660;2023-03-12T14:49:58;13.7;60.2
78475;SHT31;67766;51.964;5.660;2023-03-12T14:52:28;13.7;59.2
78475;SHT31;67766;51.964;5.660;2023-03-12T14:55:03;13.8;59.0
78475;SHT31;67766;51.964;5.660;2023-03-12T14:57:38;13.8;59.0
78475;SHT31;67766;51.964;5.660;2023-03-12T15:00:20;13.8;58.5
78475;SHT31;67766;51.964;5.660;2023-03-12T15:02:51;13.8;58.4
78475;SHT31;67766;51.964;5.660;2023-03-12T15:05:23;13.8;58.3
78475;SHT31;67766;51.964;5.660;2023-03-12T15:08:01;13.8;58.7
78475;SHT31;67766;51.964;5.660;2023-03-12T15:10:31;13.8;57.7
78475;SHT31;67766;51.964;5.660;2023-03-12T15:13:02;13.8;57.5
78475;SHT31;67766;51.964;5.660;2023-03-12T15:15:38;13.9;56.7
78475;SHT31;67766;51.964;5.660;2023-03-12T15:18:14;13.9;56.8
78475;SHT31;67766;51.964;5.660;2023-03-12T15:20:46;13.9;56.3
78475;SHT31;67766;51.964;5.660;2023-03-12T15:23:18;13.9;56.0
78475;SHT31;67766;51.964;5.660;2023-03-12T15:26:09;13.9;56.0
78475;SHT31;67766;51.964;5.660;2023-03-12T15:28:39;14.0;55.8
78475;SHT31;67766;51.964;5.660;2023-03-12T15:31:14;14.0;55.8
78475;SHT31;67766;51.964;5.660;2023-03-12T15:34:00;14.0;55.8
78475;SHT31;67766;51.964;5.660;2023-03-12T15:36:32;14.0;55.7
78475;SHT31;67766;51.964;5.660;2023-03-12T15:39:11;14.1;55.8
78475;SHT31;67766;51.964;5.660;2023-03-12T15:41:43;14.1;55.4
78475;SHT31;67766;51.964;5.660;2023-03-12T15:44:19;14.1;54.7
78475;SHT31;67766;51.964;5.660;2023-03-12T15:46:52;14.1;54.9
78475;SHT31;67766;51.964;5.660;2023-03-12T15:49:26;14.1;54.6
78475;SHT31;67766;51.964;5.660;2023-03-12T15:52:06;14.1;54.5
78475;SHT31;67766;51.964;5.660;2023-03-12T15:54:42;14.1;54.7
78475;SHT31;67766;51.964;5.660;2023-03-12T15:57:18;14.0;55.1
78475;SHT31;67766;51.964;5.660;2023-03-12T16:00:15;14.0;54.9
78475;SHT31;67766;51.964;5.660;2023-03-12T16:02:51;14.0;55.2
78475;SHT31;67766;51.964;5.660;2023-03-12T16:05:23;14.0;55.4
78475;SHT31;67766;51.964;5.660;2023-03-12T16:07:58;14.0;55.6
78475;SHT31;67766;51.964;5.660;2023-03-12T16:10:35;14.0;55.9
78475;SHT31;67766;51.964;5.660;2023-03-12T16:13:06;13.9;56.2
78475;SHT31;67766;51.964;5.660;2023-03-12T16:15:38;13.9;56.4
78475;SHT31;67766;51.964;5.660;2023-03-12T16:18:12;13.9;56.7
78475;SHT31;67766;51.964;5.660;2023-03-12T16:20:43;13.9;56.8
78475;SHT31;67766;51.964;5.660;2023-03-12T16:23:13;13.9;56.8
78475;SHT31;67766;51.964;5.660;2023-03-12T16:25:45;13.9;56.9
78475;SHT31;67766;51.964;5.660;2023-03-12T16:28:18;13.8;57.2
78475;SHT31;67766;51.964;5.660;2023-03-12T16:30:49;13.8;57.4
78475;SHT31;67766;51.964;5.660;2023-03-12T16:33:22;13.8;57.3
78475;SHT31;67766;51.964;5.660;2023-03-12T16:35:52;13.8;57.4
78475;SHT31;67766;51.964;5.660;2023-03-12T16:38:22;13.8;57.3
78475;SHT31;67766;51.964;5.660;2023-03-12T16:40:51;13.8;57.3
78475;SHT31;67766;51.964;5.660;2023-03-12T16:43:23;13.8;57.1
78475;SHT31;67766;51.964;5.660;2023-03-12T16:45:55;13.7;57.2
78475;SHT31;67766;51.964;5.660;2023-03-12T16:48:25;13.7;57.3
78475;SHT31;67766;51.964;5.660;2023-03-12T16:50:56;13.7;57.4
78475;SHT31;67766;51.964;5.660;2023-03-12T16:53:26;13.7;57.4
78475;SHT31;67766;51.964;5.660;2023-03-12T16:55:59;13.7;57.4
78475;SHT31;67766;51.964;5.660;2023-03-12T16:58:29;13.7;57.4
78475;SHT31;67766;51.964;5.660;2023-03-12T17:00:59;13.7;57.2
78475;SHT31;67766;51.964;5.660;2023-03-12T17:03:33;13.6;57.3
78475;SHT31;67766;51.964;5.660;2023-03-12T17:06:05;13.6;57.1